Time;durP1;ratioP1;P1;durP2;ratioP2;P2;SDS_P1;SDS_P2;PMS_P1;PMS_P2;Temp;Humidity;BMP_temperature;BMP_pressure;BME280_temperature;BME280_humidity;BME280_pressure;Samples;Min_cycle;Max_cycle;Signal;HPM_P1;HPM_P2
2023/12/24 00:03:57;;;;;;;21.02;3.22;;;9.00;99.90;;;;;;5367689;24;20103;-91
2023/12/24 00:43:45;;;;;;;15.20;3.33;;;8.90;99.90;;;;;;4724157;30;20688;-90
2023/12/24 00:58:33;;;;;;;17.30;2.70;;;8.90;99.90;;;;;;5131115;24;20063;31
2023/12/24 01:05:09;;;;;;;18.40;2.50;;;9.20;99.90;;;;;;4666049;30;20594;-90
2023/12/24 01:31:27;;;;;;;16.23;2.83;;;8.90;99.90;;;;;;4168409;24;20093;-89
2023/12/24 01:34:57;;;;;;;12.48;2.40;;;8.40;99.90;;;;;;4699761;30;20084;-92
2023/12/24 01:44:40;;;;;;;13.35;2.40;;;9.00;99.90;;;;;;4611240;31;20465;-90
2023/12/24 02:06:01;;;;;;;;;;;;;;;;;;;;;
2023/12/24 02:11:54;;;;;;;10.27;2.70;;;8.90;99.90;;;;;;6297769;22;20033;-90
2023/12/24 02:33:24;;;;;;;15.70;3.00;;;9.00;99.90;;;;;;6309625;22;20468;-95
2023/12/24 02:40:37;;;;;;;14.57;2.60;;;9.00;99.90;;;;;;6191744;22;20103;-90
2023/12/24 02:43:34;;;;;;;;;;;;;;;;;;;;;
2023/12/24 03:29:29;;;;;;;6.68;1.30;;;9.30;99.90;;;;;;6250498;22;20023;-90
2023/12/24 03:33:05;;;;;;;12.40;1.73;;;9.20;99.90;;;;;;6241752;23;20026;-89
2023/12/24 03:42:44;;;;;;;4.88;1.50;;;9.20;99.90;;;;;;6272201;22;20144;-88
2023/12/24 03:49:27;;;;;;;4.88;1.20;;;9.20;99.90;;;;;;6153329;23;20914;-90
2023/12/24 03:52:22;;;;;;;6.45;1.40;;;9.30;99.90;;;;;;6156149;23;20029;-91
2023/12/24 03:58:53;;;;;;;7.90;0.93;;;9.40;99.90;;;;;;6065865;23;20026;-90
2023/12/24 04:02:05;;;;;;;4.50;1.33;;;9.70;99.90;;;;;;6075817;22;21815;-92
2023/12/24 04:04:57;;;;;;;3.85;1.33;;;9.30;99.90;;;;;;6334129;22;20022;-90
2023/12/24 04:07:51;;;;;;;3.33;0.82;;;9.50;99.90;;;;;;6240191;23;20042;-90
2023/12/24 04:20:38;;;;;;;4.25;0.90;;;9.30;99.90;;;;;;6149338;23;20339;-90
2023/12/24 04:23:43;;;;;;;4.50;0.98;;;9.40;99.90;;;;;;6124645;23;20022;-91
2023/12/24 04:26:36;;;;;;;2.15;0.90;;;9.40;99.90;;;;;;6276704;22;20074;-90
2023/12/24 05:07:58;;;;;;;9.93;1.17;;;9.60;99.90;;;;;;6156104;22;20029;-89
2023/12/24 05:15:09;;;;;;;7.28;1.58;;;9.50;99.90;;;;;;6088821;23;20088;-88
2023/12/24 05:22:24;;;;;;;;;;;;;;;;;;;;;
2023/12/24 05:28:58;;;;;;;12.15;2.60;;;9.70;99.90;;;;;;6022556;23;20030;-88
2023/12/24 05:32:13;;;;;;;10.95;2.65;;;9.70;99.90;;;;;;6085642;23;20029;-89
2023/12/24 05:50:40;;;;;;;13.50;2.17;;;9.80;99.90;;;;;;6210174;22;20025;-91
2023/12/24 06:01:53;;;;;;;;;;;;;;;;;;;;;
2023/12/24 06:05:19;;;;;;;23.98;3.08;;;9.80;99.90;;;;;;6125475;23;20359;-90
2023/12/24 06:07:56;;;;;;;12.13;2.53;;;10.10;99.90;;;;;;6066482;23;20066;-91
2023/12/24 06:11:54;;;;;;;15.93;2.50;;;10.20;99.90;;;;;;6043438;23;20376;-90
2023/12/24 06:14:50;;;;;;;18.20;2.97;;;9.60;99.90;;;;;;6091081;23;20198;-90
2023/12/24 06:17:42;;;;;;;16.02;2.50;;;10.00;99.90;;;;;;5986771;23;20034;-90
2023/12/24 06:20:18;;;;;;;20.83;2.65;;;9.90;99.90;;;;;;5986155;23;20127;-88
2023/12/24 06:23:29;;;;;;;22.33;3.05;;;9.90;99.90;;;;;;6033590;23;20337;-88
2023/12/24 06:30:11;;;;;;;;;;;;;;;;;;;;;
2023/12/24 06:33:18;;;;;;;20.98;2.90;;;9.90;99.90;;;;;;6015726;23;20471;-88
2023/12/24 06:39:33;;;;;;;14.80;2.70;;;9.90;99.90;;;;;;5925496;24;20024;-90
2023/12/24 06:42:01;;;;;;;14.65;2.63;;;9.70;99.90;;;;;;5950813;24;20053;-89
2023/12/24 06:44:43;;;;;;;21.40;2.90;;;10.00;99.90;;;;;;5895121;24;20019;-87
2023/12/24 06:47:29;;;;;;;18.33;3.40;;;9.90;99.90;;;;;;5810192;24;20133;-87
2023/12/24 06:50:28;;;;;;;17.00;2.60;;;10.30;99.90;;;;;;5809993;24;20042;-88
2023/12/24 06:53:18;;;;;;;16.42;2.65;;;10.10;99.90;;;;;;5833018;24;20060;-89
2023/12/24 06:56:09;;;;;;;;;;;;;;;;;;;;;
2023/12/24 06:58:44;;;;;;;19.83;2.75;;;10.10;99.90;;;;;;5890432;23;20259;-88
2023/12/24 07:01:12;;;;;;;16.90;2.75;;;10.10;99.90;;;;;;5866182;24;20098;-90
2023/12/24 07:03:49;;;;;;;16.15;2.90;;;10.80;99.90;;;;;;5890337;24;20025;-87
2023/12/24 07:06:21;;;;;;;20.65;2.75;;;10.10;99.90;;;;;;5968447;23;20022;-88
2023/12/24 07:08:50;;;;;;;14.52;2.40;;;10.60;99.90;;;;;;6094954;23;20021;-88
2023/12/24 07:11:15;;;;;;;17.20;2.40;;;10.20;99.90;;;;;;6115471;23;20022;-87
2023/12/24 07:13:46;;;;;;;18.80;3.00;;;10.20;99.90;;;;;;6067979;23;20163;-87
2023/12/24 07:16:17;;;;;;;19.13;3.00;;;10.10;99.90;;;;;;6129206;23;20057;-89
2023/12/24 07:18:43;;;;;;;17.98;3.05;;;9.80;99.90;;;;;;6150814;23;20569;-87
2023/12/24 07:21:09;;;;;;;17.75;2.95;;;11.00;99.90;;;;;;6181052;23;20027;-86
2023/12/24 07:23:46;;;;;;;19.48;3.35;;;11.10;99.90;;;;;;6207773;23;20091;-88
2023/12/24 07:26:11;;;;;;;16.65;3.25;;;11.20;99.90;;;;;;6207415;23;20818;-87
2023/12/24 07:28:40;;;;;;;13.13;2.38;;;10.20;99.90;;;;;;6181067;23;20017;-88
2023/12/24 07:31:06;;;;;;;19.00;2.78;;;10.20;99.90;;;;;;6180937;23;20107;-86
2023/12/24 07:33:35;;;;;;;10.38;2.10;;;10.90;99.90;;;;;;6180630;23;20513;-87
2023/12/24 07:36:11;;;;;;;16.00;1.92;;;10.40;99.90;;;;;;6156797;22;20029;-90
2023/12/24 07:38:36;;;;;;;14.75;2.33;;;10.30;99.90;;;;;;6180922;23;20105;-88
2023/12/24 07:41:03;;;;;;;20.17;2.95;;;11.20;99.90;;;;;;6156549;23;20055;-85
2023/12/24 07:43:29;;;;;;;30.17;3.47;;;10.40;99.90;;;;;;6180590;23;20078;-86
2023/12/24 07:45:58;;;;;;;20.85;3.40;;;10.60;99.90;;;;;;6156354;23;20034;-86
2023/12/24 07:48:26;;;;;;;19.77;2.90;;;10.40;99.90;;;;;;6179149;23;20028;-85
2023/12/24 07:50:52;;;;;;;16.00;2.60;;;10.40;99.90;;;;;;6207524;23;20025;-85
2023/12/24 07:53:18;;;;;;;15.30;2.50;;;11.10;99.90;;;;;;6156094;23;20457;-86
2023/12/24 07:55:44;;;;;;;19.13;2.63;;;11.00;99.90;;;;;;6180513;23;20019;-86
2023/12/24 07:58:10;;;;;;;20.17;2.80;;;11.20;99.90;;;;;;6180171;23;20396;-86
2023/12/24 08:00:38;;;;;;;19.05;3.10;;;11.00;99.90;;;;;;6180153;23;20346;-88
2023/12/24 08:03:04;;;;;;;15.82;2.65;;;10.90;99.90;;;;;;6180752;23;20022;-88
2023/12/24 08:05:30;;;;;;;21.42;3.25;;;11.10;99.90;;;;;;6180795;23;20064;-87
2023/12/24 08:07:55;;;;;;;18.63;2.60;;;11.10;99.90;;;;;;6206988;23;20016;-86
2023/12/24 08:10:21;;;;;;;17.63;2.70;;;10.40;99.90;;;;;;6207400;22;20027;-86
2023/12/24 08:12:47;;;;;;;20.42;2.55;;;10.30;99.90;;;;;;6206821;23;20349;-87
2023/12/24 08:15:13;;;;;;;19.05;2.88;;;10.50;99.90;;;;;;6207219;23;20130;-87
2023/12/24 08:17:43;;;;;;;17.70;3.00;;;10.30;99.90;;;;;;6207464;23;20357;-86
2023/12/24 08:20:09;;;;;;;19.33;3.22;;;10.40;99.90;;;;;;6180524;23;20048;-86
2023/12/24 08:22:36;;;;;;;22.33;3.17;;;10.40;99.90;;;;;;6180468;23;20020;-86
2023/12/24 08:25:02;;;;;;;30.67;3.25;;;11.10;99.90;;;;;;6180803;23;20095;-87
2023/12/24 08:27:28;;;;;;;14.52;2.80;;;10.50;99.90;;;;;;6180838;23;20063;-89
2023/12/24 08:29:55;;;;;;;21.33;3.20;;;10.90;99.90;;;;;;6155131;23;20046;-87
2023/12/24 08:32:21;;;;;;;16.10;2.65;;;10.60;99.90;;;;;;6156200;23;20103;-87
2023/12/24 08:34:47;;;;;;;17.58;2.45;;;10.90;99.90;;;;;;6180968;23;20102;-86
2023/12/24 08:37:16;;;;;;;22.70;2.67;;;10.50;99.90;;;;;;6207581;23;20469;-86
2023/12/24 08:39:41;;;;;;;20.10;2.95;;;10.90;99.90;;;;;;6156172;23;20054;-84
2023/12/24 08:42:07;;;;;;;20.73;3.97;;;10.50;99.90;;;;;;6180900;23;20021;-85
2023/12/24 08:44:35;;;;;;;16.48;2.58;;;11.40;99.90;;;;;;6180332;23;20028;-88
2023/12/24 08:47:01;;;;;;;20.25;3.03;;;10.60;99.90;;;;;;6207584;23;20153;-85
2023/12/24 08:49:34;;;;;;;19.23;2.85;;;11.00;99.90;;;;;;6155429;23;20469;-87
2023/12/24 08:52:02;;;;;;;20.05;3.08;;;10.70;99.90;;;;;;6155797;23;20074;-86
2023/12/24 08:54:28;;;;;;;21.83;2.67;;;10.40;99.90;;;;;;6205495;23;20564;-88
2023/12/24 08:56:54;;;;;;;15.27;2.58;;;10.70;99.90;;;;;;6155152;23;20025;-84
2023/12/24 08:59:19;;;;;;;17.88;2.33;;;11.00;99.90;;;;;;6206962;23;20073;-85
2023/12/24 09:01:45;;;;;;;21.77;3.50;;;11.30;99.90;;;;;;6155066;22;20097;-86
2023/12/24 09:04:11;;;;;;;19.58;3.20;;;11.30;99.90;;;;;;6180674;23;20043;-85
2023/12/24 09:06:43;;;;;;;26.67;3.05;;;10.70;99.90;;;;;;6180537;23;20112;-88
2023/12/24 09:09:12;;;;;;;17.63;2.95;;;10.50;99.90;;;;;;6179867;23;20055;-88
2023/12/24 09:11:38;;;;;;;14.02;2.08;;;10.70;99.90;;;;;;6180366;23;20020;-85
2023/12/24 09:14:03;;;;;;;13.07;2.47;;;11.40;99.90;;;;;;6180273;23;20024;-87
2023/12/24 09:16:29;;;;;;;17.38;2.65;;;11.30;99.90;;;;;;6207145;23;20383;-87
2023/12/24 09:18:55;;;;;;;20.88;3.00;;;10.80;99.90;;;;;;6207399;23;20311;-85
2023/12/24 09:21:20;;;;;;;18.75;2.83;;;11.60;99.90;;;;;;6207079;23;20024;-86
2023/12/24 09:23:46;;;;;;;11.70;2.20;;;10.90;99.90;;;;;;6207502;23;20503;-86
2023/12/24 09:26:12;;;;;;;14.77;2.22;;;11.00;99.90;;;;;;6207673;23;20020;-86
2023/12/24 09:28:37;;;;;;;15.48;2.10;;;11.00;99.90;;;;;;6180708;23;20468;-86
2023/12/24 09:31:03;;;;;;;15.10;2.53;;;11.30;99.90;;;;;;6155628;23;20032;-83
2023/12/24 09:33:29;;;;;;;13.23;2.22;;;11.00;99.90;;;;;;6180398;23;20052;-91
2023/12/24 09:35:54;;;;;;;12.05;1.95;;;11.10;99.90;;;;;;6207502;23;20047;-88
2023/12/24 09:38:20;;;;;;;13.90;2.10;;;11.10;99.90;;;;;;6206820;23;20055;-86
2023/12/24 09:40:52;;;;;;;16.55;2.28;;;11.10;99.90;;;;;;6155337;23;20031;-88
2023/12/24 09:43:17;;;;;;;14.40;2.33;;;11.20;99.90;;;;;;6180711;23;20027;-86
2023/12/24 09:45:46;;;;;;;8.68;1.58;;;11.10;99.90;;;;;;6207232;23;20056;-87
2023/12/24 09:48:11;;;;;;;16.17;2.55;;;11.10;99.90;;;;;;6179822;23;20061;-87
2023/12/24 09:50:37;;;;;;;14.48;2.42;;;11.10;99.90;;;;;;6180491;23;20020;-89
2023/12/24 09:53:06;;;;;;;13.07;2.10;;;11.30;99.90;;;;;;6205088;23;20099;-86
2023/12/24 09:55:32;;;;;;;16.92;2.42;;;11.80;99.90;;;;;;6151764;23;20386;-88
2023/12/24 09:57:58;;;;;;;18.55;2.55;;;11.10;99.90;;;;;;6203854;23;20020;-83
2023/12/24 10:00:29;;;;;;;12.23;1.98;;;11.70;99.90;;;;;;6153819;23;20020;-84
2023/12/24 10:03:12;;;;;;;16.23;2.85;;;11.20;99.90;;;;;;6177878;23;20029;-87
2023/12/24 10:06:03;;;;;;;12.95;2.00;;;11.20;99.90;;;;;;6178958;23;20075;-88
2023/12/24 10:08:36;;;;;;;13.25;2.15;;;11.20;99.90;;;;;;6179713;23;20020;-87
2023/12/24 10:14:12;;;;;;;17.15;2.30;;;11.20;99.90;;;;;;6088179;23;20037;-90
2023/12/24 10:16:50;;;;;;;14.95;2.40;;;11.50;99.90;;;;;;6066101;23;20022;-87
2023/12/24 10:19:27;;;;;;;19.23;2.58;;;11.90;99.90;;;;;;6087651;23;20026;-86
2023/12/24 10:22:06;;;;;;;14.35;2.05;;;11.70;99.90;;;;;;6088963;23;20022;-87
2023/12/24 10:24:34;;;;;;;18.08;2.10;;;11.20;99.90;;;;;;6087946;23;20032;-86
2023/12/24 10:27:09;;;;;;;10.23;1.90;;;11.20;99.90;;;;;;6087595;23;20037;-85
2023/12/24 10:29:39;;;;;;;17.27;2.78;;;11.30;99.90;;;;;;6112613;23;20028;-84
2023/12/24 10:32:08;;;;;;;17.45;1.92;;;11.90;99.90;;;;;;6113914;23;20026;-86
2023/12/24 10:34:34;;;;;;;15.23;2.30;;;11.30;99.90;;;;;;6088661;23;20052;-85
2023/12/24 10:37:19;;;;;;;15.07;2.13;;;11.50;99.90;;;;;;6064535;23;20052;-88
2023/12/24 10:39:45;;;;;;;12.45;1.75;;;11.90;99.90;;;;;;6114700;23;20017;-83
2023/12/24 10:42:11;;;;;;;10.75;1.75;;;11.50;99.90;;;;;;6113682;23;20033;-85
2023/12/24 10:44:42;;;;;;;16.70;2.10;;;11.70;99.90;;;;;;6089503;23;20014;-86
2023/12/24 10:47:08;;;;;;;14.52;2.67;;;11.50;99.90;;;;;;6088381;23;20056;-85
2023/12/24 10:49:39;;;;;;;6.75;1.60;;;11.70;99.90;;;;;;6114440;23;20404;-87
2023/12/24 10:52:11;;;;;;;10.18;1.95;;;11.60;99.90;;;;;;6146910;23;20512;-86
2023/12/24 10:54:39;;;;;;;10.85;2.30;;;11.60;99.90;;;;;;6179689;23;20021;-85
2023/12/24 10:57:30;;;;;;;11.77;1.85;;;12.00;99.90;;;;;;6179046;23;20060;-85
2023/12/24 11:00:12;;;;;;;11.75;2.17;;;11.70;99.90;;;;;;6152025;23;20441;-88
2023/12/24 11:02:49;;;;;;;12.75;2.00;;;11.70;99.90;;;;;;6179939;23;20025;-90
2023/12/24 11:05:39;;;;;;;12.32;2.05;;;11.80;99.90;;;;;;6153313;23;20871;-92
2023/12/24 11:08:26;;;;;;;11.32;2.17;;;11.70;99.90;;;;;;6177552;23;20085;-85
2023/12/24 11:11:11;;;;;;;19.95;2.65;;;11.70;99.90;;;;;;6179599;23;20052;-84
2023/12/24 11:13:44;;;;;;;18.38;2.53;;;11.70;99.90;;;;;;6179223;23;20056;-84
2023/12/24 11:16:10;;;;;;;17.70;2.67;;;11.70;99.90;;;;;;6179881;23;20349;-90
2023/12/24 11:18:46;;;;;;;15.77;2.50;;;11.50;99.90;;;;;;6174605;22;20413;-84
2023/12/24 11:21:19;;;;;;;10.65;2.20;;;11.70;99.90;;;;;;6175650;23;20017;-86
2023/12/24 11:24:24;;;;;;;15.18;2.40;;;11.60;99.90;;;;;;6151646;23;20090;-87
2023/12/24 11:26:51;;;;;;;16.73;1.83;;;12.30;99.90;;;;;;6182943;23;20025;-84
2023/12/24 11:29:50;;;;;;;14.35;2.88;;;12.10;99.90;;;;;;6207201;23;20024;-85
2023/12/24 11:32:27;;;;;;;12.38;1.83;;;11.60;99.90;;;;;;6089270;23;20086;-86
2023/12/24 11:34:57;;;;;;;18.05;2.88;;;11.60;99.90;;;;;;6064251;23;20022;-84
2023/12/24 11:37:26;;;;;;;13.27;2.63;;;12.00;99.90;;;;;;6089759;23;20104;-84
2023/12/24 11:40:18;;;;;;;11.48;2.38;;;11.50;99.90;;;;;;6087757;23;20022;-85
2023/12/24 11:42:54;;;;;;;13.52;2.22;;;11.60;99.90;;;;;;6065510;23;20472;-84
2023/12/24 11:45:25;;;;;;;15.77;2.60;;;11.30;99.90;;;;;;6065521;23;20053;-85
2023/12/24 11:47:52;;;;;;;19.60;3.05;;;11.50;99.90;;;;;;6088973;23;20023;-82
2023/12/24 11:50:18;;;;;;;9.95;2.40;;;11.90;99.90;;;;;;6065492;23;20121;-82
2023/12/24 11:52:45;;;;;;;14.85;2.30;;;11.60;99.90;;;;;;6066600;23;20132;-84
2023/12/24 11:55:17;;;;;;;20.35;2.65;;;11.60;99.90;;;;;;6040697;23;20022;-87
2023/12/24 11:57:44;;;;;;;16.08;2.80;;;11.70;99.90;;;;;;6066334;23;20574;-83
2023/12/24 12:00:26;;;;;;;13.18;2.13;;;11.60;99.90;;;;;;6117510;23;20052;-86
2023/12/24 12:02:57;;;;;;;8.18;1.58;;;11.60;99.90;;;;;;6209221;23;20087;-84
2023/12/24 12:05:24;;;;;;;11.77;2.05;;;12.10;99.90;;;;;;6208973;23;20028;-83
2023/12/24 12:07:51;;;;;;;13.25;1.98;;;11.60;99.90;;;;;;6208432;23;20020;-85
2023/12/24 12:10:17;;;;;;;16.80;2.38;;;11.70;99.90;;;;;;6179837;23;20020;-86
2023/12/24 12:12:43;;;;;;;16.73;2.72;;;11.70;99.90;;;;;;6156011;23;20856;-87
2023/12/24 12:15:10;;;;;;;18.77;2.78;;;11.70;99.90;;;;;;6182263;22;20017;-86
2023/12/24 12:17:36;;;;;;;12.57;2.40;;;11.70;99.90;;;;;;6156430;23;20341;-88
2023/12/24 12:20:04;;;;;;;16.17;1.88;;;11.70;99.90;;;;;;6208417;23;20028;-87
2023/12/24 12:22:30;;;;;;;14.75;2.42;;;11.70;99.90;;;;;;6208191;23;20020;-86
2023/12/24 12:24:56;;;;;;;10.70;2.10;;;11.80;99.90;;;;;;6208213;23;20059;-84
2023/12/24 12:27:21;;;;;;;19.52;2.25;;;11.70;99.90;;;;;;6207104;23;20046;-85
2023/12/24 12:29:47;;;;;;;14.38;2.22;;;11.70;99.90;;;;;;6180717;23;20341;-86
2023/12/24 12:32:12;;;;;;;13.32;2.40;;;12.10;99.90;;;;;;6181114;23;20031;-84
2023/12/24 12:34:39;;;;;;;16.42;2.13;;;11.70;99.90;;;;;;6207581;23;20013;-85
2023/12/24 12:37:05;;;;;;;12.68;1.98;;;12.30;99.90;;;;;;6207456;23;20428;-82
2023/12/24 12:39:31;;;;;;;14.93;2.05;;;11.90;99.90;;;;;;6181565;23;20032;-87
2023/12/24 12:41:57;;;;;;;9.88;2.00;;;12.00;99.90;;;;;;6206985;23;20047;-88
2023/12/24 12:44:23;;;;;;;14.15;2.13;;;11.80;99.90;;;;;;6208047;23;20093;-87
2023/12/24 12:46:55;;;;;;;14.20;1.90;;;12.00;99.90;;;;;;6181623;23;20365;-88
2023/12/24 12:49:21;;;;;;;15.32;2.20;;;12.20;99.90;;;;;;6180477;23;20025;-86
2023/12/24 12:51:49;;;;;;;13.63;1.80;;;12.20;99.90;;;;;;6208125;23;20032;-87
2023/12/24 12:54:20;;;;;;;13.27;1.95;;;11.90;99.90;;;;;;6153951;23;20016;-87
2023/12/24 12:56:49;;;;;;;18.05;2.88;;;11.90;99.90;;;;;;6208674;23;20341;-86
2023/12/24 12:59:26;;;;;;;12.15;1.95;;;11.90;99.90;;;;;;6207373;23;20019;-87
2023/12/24 13:01:53;;;;;;;21.98;2.25;;;11.90;99.90;;;;;;6180415;23;20020;-87
2023/12/24 13:04:33;;;;;;;16.75;1.85;;;12.50;99.90;;;;;;6207489;23;20016;-89
2023/12/24 13:07:02;;;;;;;13.25;1.95;;;11.90;99.90;;;;;;6181411;23;20107;-87
2023/12/24 13:09:49;;;;;;;12.52;1.75;;;11.90;99.90;;;;;;6157392;23;20020;-87
2023/12/24 13:12:23;;;;;;;9.82;1.58;;;12.40;99.90;;;;;;6206043;23;20064;-88
2023/12/24 13:14:52;;;;;;;16.55;1.98;;;12.10;99.90;;;;;;6181861;23;20024;-83
2023/12/24 13:17:24;;;;;;;12.85;2.20;;;12.00;99.90;;;;;;6209319;23;20024;-90
2023/12/24 13:19:53;;;;;;;17.92;2.10;;;12.00;99.90;;;;;;6159548;23;20020;-94
2023/12/24 13:22:24;;;;;;;15.32;2.55;;;12.20;99.90;;;;;;6210319;23;20005;-85
2023/12/24 13:24:52;;;;;;;20.65;2.88;;;12.30;99.90;;;;;;6182937;23;20020;-90
2023/12/24 13:27:18;;;;;;;11.98;2.00;;;12.00;99.90;;;;;;6209526;23;20101;-87
2023/12/24 13:29:44;;;;;;;21.88;3.00;;;12.00;99.90;;;;;;6210457;23;20383;-84
2023/12/24 13:32:10;;;;;;;14.93;2.70;;;12.60;99.90;;;;;;6183823;23;20031;-83
2023/12/24 13:34:36;;;;;;;21.17;3.63;;;12.20;99.90;;;;;;6184793;23;20009;-84
2023/12/24 13:37:02;;;;;;;14.15;2.17;;;12.10;99.90;;;;;;6210990;23;20089;-83
2023/12/24 13:39:28;;;;;;;15.38;2.70;;;12.10;99.90;;;;;;6184344;23;20019;-86
2023/12/24 13:41:54;;;;;;;13.75;2.28;;;12.40;99.90;;;;;;6159745;23;20020;-85
2023/12/24 13:44:20;;;;;;;13.50;2.03;;;12.10;99.90;;;;;;6210357;23;20098;-84
2023/12/24 13:46:46;;;;;;;21.83;2.85;;;12.20;99.90;;;;;;6209644;23;20021;-83
2023/12/24 13:49:12;;;;;;;11.65;1.70;;;12.10;99.90;;;;;;6209264;23;20020;-83
2023/12/24 13:51:38;;;;;;;11.25;1.52;;;12.60;99.90;;;;;;6209597;23;20021;-86
2023/12/24 13:54:04;;;;;;;10.77;1.67;;;12.20;99.90;;;;;;6209511;23;20016;-81
2023/12/24 13:56:32;;;;;;;9.40;1.83;;;11.90;99.90;;;;;;6210680;23;20021;-80
2023/12/24 13:58:58;;;;;;;8.15;1.67;;;11.90;99.90;;;;;;6183338;23;20028;-81
2023/12/24 14:01:23;;;;;;;10.98;1.73;;;11.90;99.90;;;;;;6209924;23;20009;-82
2023/12/24 14:03:49;;;;;;;9.85;1.90;;;12.00;99.90;;;;;;6209344;23;20463;-87
2023/12/24 14:06:14;;;;;;;9.10;1.42;;;11.80;99.90;;;;;;6182827;23;20330;-92
2023/12/24 14:08:40;;;;;;;9.48;1.30;;;11.70;99.90;;;;;;6209383;23;20036;-86
2023/12/24 14:11:08;;;;;;;5.25;0.90;;;11.90;99.90;;;;;;6208471;23;20349;-81
2023/12/24 14:13:34;;;;;;;9.30;1.40;;;12.40;99.90;;;;;;6182188;23;20017;-87
2023/12/24 14:15:59;;;;;;;9.05;1.30;;;11.30;99.90;;;;;;6182200;23;20349;-81
2023/12/24 14:18:25;;;;;;;5.47;1.25;;;12.20;99.90;;;;;;6208170;23;20013;-88
2023/12/24 14:20:51;;;;;;;8.93;1.17;;;11.80;99.90;;;;;;6208343;23;20031;-85
2023/12/24 14:23:18;;;;;;;3.22;0.77;;;11.70;99.90;;;;;;6181322;23;20032;-89
2023/12/24 14:25:44;;;;;;;3.83;0.90;;;11.70;99.90;;;;;;6208348;23;20091;-82
2023/12/24 14:28:10;;;;;;;5.55;0.90;;;12.30;99.90;;;;;;6207907;22;20047;-84
2023/12/24 14:30:36;;;;;;;3.60;0.80;;;12.10;99.90;;;;;;6207682;23;20028;-83
2023/12/24 14:33:01;;;;;;;5.55;1.02;;;11.90;99.90;;;;;;6207251;23;20333;-84
2023/12/24 14:35:28;;;;;;;4.22;0.90;;;11.70;99.90;;;;;;6207613;23;20012;-84
2023/12/24 14:37:55;;;;;;;4.95;0.98;;;11.70;99.90;;;;;;6207781;23;20009;-82
2023/12/24 14:40:21;;;;;;;5.40;1.17;;;11.70;99.90;;;;;;6181536;23;20063;-83
2023/12/24 14:42:46;;;;;;;5.45;1.30;;;11.80;99.90;;;;;;6182115;23;20439;-90
2023/12/24 14:45:12;;;;;;;7.13;1.02;;;11.70;99.90;;;;;;6207424;23;20020;-84
2023/12/24 14:47:38;;;;;;;6.40;1.40;;;11.80;99.90;;;;;;6207281;23;20024;-83
2023/12/24 14:50:04;;;;;;;6.53;1.23;;;11.70;99.90;;;;;;6175395;23;20031;-84
2023/12/24 14:52:30;;;;;;;4.93;0.77;;;11.60;99.90;;;;;;6177490;23;20140;-84
2023/12/24 14:54:56;;;;;;;9.32;1.50;;;12.40;99.90;;;;;;6177563;23;20043;-83
2023/12/24 14:57:25;;;;;;;7.63;0.98;;;11.90;99.90;;;;;;6176432;23;20029;-88
2023/12/24 14:59:51;;;;;;;8.02;1.23;;;11.80;99.90;;;;;;6177412;23;20029;-82
2023/12/24 15:02:16;;;;;;;9.52;1.20;;;11.80;99.90;;;;;;6177643;23;20082;-89
2023/12/24 15:04:43;;;;;;;8.13;1.63;;;12.10;99.90;;;;;;6177270;23;20766;-90
2023/12/24 15:07:08;;;;;;;8.25;1.15;;;11.70;99.90;;;;;;6177799;23;20013;-85
2023/12/24 15:09:34;;;;;;;7.20;1.10;;;11.80;99.90;;;;;;6178325;23;20345;-86
2023/12/24 15:12:00;;;;;;;8.52;1.38;;;11.40;99.90;;;;;;6154043;23;20453;-88
2023/12/24 15:14:29;;;;;;;8.60;1.20;;;12.30;99.90;;;;;;6178539;23;20016;-85
2023/12/24 15:16:55;;;;;;;9.23;1.95;;;11.50;99.90;;;;;;6178741;23;20021;-85
2023/12/24 15:19:20;;;;;;;7.05;1.17;;;11.80;99.90;;;;;;6178184;23;20048;-86
2023/12/24 15:21:46;;;;;;;12.65;1.70;;;11.80;99.90;;;;;;6178365;22;20040;-85
2023/12/24 15:24:12;;;;;;;10.43;1.70;;;11.90;99.90;;;;;;6180152;23;20017;-87
2023/12/24 15:26:42;;;;;;;12.13;1.83;;;11.90;99.90;;;;;;6179759;22;20186;-90
2023/12/24 15:29:11;;;;;;;9.15;1.98;;;12.30;99.90;;;;;;6154709;23;20118;-90
2023/12/24 15:31:44;;;;;;;9.45;1.88;;;12.10;99.90;;;;;;6181640;23;20043;-88
2023/12/24 15:34:09;;;;;;;7.75;1.13;;;11.90;99.90;;;;;;6179630;23;20430;-84
2023/12/24 15:36:40;;;;;;;12.10;1.80;;;12.00;99.90;;;;;;6181017;23;20070;-93
2023/12/24 15:39:06;;;;;;;12.70;1.92;;;12.30;99.90;;;;;;6179277;23;20021;-84
2023/12/24 15:41:38;;;;;;;9.35;1.48;;;12.00;99.90;;;;;;6182325;23;20032;-87
2023/12/24 15:44:03;;;;;;;11.82;2.30;;;12.10;99.90;;;;;;6182080;23;20067;-85
2023/12/24 15:46:30;;;;;;;11.82;1.88;;;12.10;99.90;;;;;;6176258;23;20025;-90
2023/12/24 15:48:56;;;;;;;16.77;2.65;;;12.40;99.90;;;;;;6175899;23;20028;-82
2023/12/24 15:51:22;;;;;;;9.25;2.15;;;12.10;99.90;;;;;;6177990;23;20020;-86
2023/12/24 15:53:47;;;;;;;13.68;2.80;;;12.20;99.90;;;;;;6278661;22;20456;-84
2023/12/24 15:56:20;;;;;;;12.60;1.92;;;12.20;99.90;;;;;;6174983;23;20020;-83
2023/12/24 15:58:46;;;;;;;14.38;2.60;;;12.10;99.90;;;;;;6176612;23;20049;-83
2023/12/24 16:01:12;;;;;;;16.83;2.05;;;12.50;99.90;;;;;;6176801;23;20716;-84
2023/12/24 16:03:38;;;;;;;13.93;2.42;;;12.20;99.90;;;;;;6176741;23;20013;-83
2023/12/24 16:06:05;;;;;;;18.15;2.63;;;12.80;99.90;;;;;;6176675;23;20058;-83
2023/12/24 16:08:31;;;;;;;14.95;2.00;;;12.10;99.90;;;;;;6176792;23;20017;-85
2023/12/24 16:10:57;;;;;;;15.38;2.40;;;12.30;99.90;;;;;;6175347;22;20029;-83
2023/12/24 16:13:23;;;;;;;15.43;2.67;;;12.80;99.90;;;;;;6176490;23;20433;-85
2023/12/24 16:15:49;;;;;;;10.50;1.73;;;12.40;99.90;;;;;;6177053;23;20519;-85
2023/12/24 16:18:15;;;;;;;15.85;2.33;;;12.70;99.90;;;;;;6151443;23;20021;-89
2023/12/24 16:20:40;;;;;;;14.00;2.70;;;12.20;99.90;;;;;;6178524;23;20029;-85
2023/12/24 16:23:08;;;;;;;14.07;2.55;;;12.10;99.90;;;;;;6176987;23;20025;-83
2023/12/24 16:25:34;;;;;;;19.58;3.50;;;12.70;99.90;;;;;;6152498;23;20519;-92
2023/12/24 16:28:00;;;;;;;25.58;3.33;;;12.10;99.90;;;;;;6178207;23;20047;-83
2023/12/24 16:30:26;;;;;;;18.65;2.60;;;12.30;99.90;;;;;;6176675;23;20381;-84
2023/12/24 16:32:51;;;;;;;17.17;2.47;;;12.10;99.90;;;;;;6178259;23;20029;-89
2023/12/24 16:35:17;;;;;;;16.35;2.33;;;12.00;99.90;;;;;;6178143;23;20100;-85
2023/12/24 16:37:45;;;;;;;14.05;2.75;;;12.10;99.90;;;;;;6176226;23;20048;-81
2023/12/24 16:40:11;;;;;;;16.65;2.13;;;12.40;99.90;;;;;;6176665;23;20717;-92
2023/12/24 16:42:36;;;;;;;16.48;2.70;;;12.10;99.90;;;;;;6178584;23;20446;-92
2023/12/24 16:45:03;;;;;;;15.63;2.60;;;12.10;99.90;;;;;;6178759;23;20070;-84
2023/12/24 16:47:28;;;;;;;24.13;3.58;;;12.20;99.90;;;;;;6178100;23;20067;-86
2023/12/24 16:49:54;;;;;;;21.70;2.95;;;12.70;99.90;;;;;;6202643;23;20076;-83
2023/12/24 16:52:20;;;;;;;16.80;3.60;;;12.10;99.90;;;;;;6207916;23;20056;-84
2023/12/24 16:54:45;;;;;;;18.20;3.60;;;12.30;99.90;;;;;;6208318;23;20016;-85
2023/12/24 16:57:11;;;;;;;22.40;3.75;;;12.70;99.90;;;;;;6180873;23;20047;-83
2023/12/24 16:59:36;;;;;;;14.20;2.30;;;12.30;99.90;;;;;;6182047;23;20020;-87
2023/12/24 17:02:03;;;;;;;15.55;2.40;;;12.30;99.90;;;;;;6208300;23;20054;-87
2023/12/24 17:04:29;;;;;;;17.42;3.05;;;12.20;99.90;;;;;;6206153;23;20052;-88
2023/12/24 17:06:54;;;;;;;18.60;2.35;;;12.50;99.90;;;;;;6207821;22;20039;-86
2023/12/24 17:09:20;;;;;;;17.80;3.25;;;12.90;99.90;;;;;;6156733;23;20035;-82
2023/12/24 17:11:46;;;;;;;18.08;3.15;;;12.50;99.90;;;;;;6207551;23;20051;-82
2023/12/24 17:14:11;;;;;;;22.13;2.70;;;12.80;99.90;;;;;;6208716;23;20008;-90
2023/12/24 17:16:37;;;;;;;24.55;3.17;;;12.20;99.90;;;;;;6182258;23;20341;-91
2023/12/24 17:19:03;;;;;;;15.75;2.65;;;12.10;99.90;;;;;;6182276;23;20634;-92
2023/12/24 17:21:28;;;;;;;11.45;2.40;;;12.40;99.90;;;;;;6207900;23;20017;-82
2023/12/24 17:23:54;;;;;;;16.70;2.80;;;12.60;99.90;;;;;;6181686;23;20392;-83
2023/12/24 17:26:20;;;;;;;17.83;2.85;;;12.30;99.90;;;;;;6208298;23;20017;-84
2023/12/24 17:28:45;;;;;;;17.58;2.78;;;12.70;99.90;;;;;;6200922;23;20044;-82
2023/12/24 17:31:11;;;;;;;19.05;3.20;;;12.70;99.90;;;;;;6181531;23;20024;-83
2023/12/24 17:33:37;;;;;;;13.63;3.03;;;12.20;99.90;;;;;;6180924;23;20445;-83
2023/12/24 17:36:03;;;;;;;19.40;3.90;;;12.90;99.90;;;;;;6181009;23;20028;-82
2023/12/24 17:38:28;;;;;;;15.23;3.25;;;12.10;99.90;;;;;;6180743;22;20481;-84
2023/12/24 17:40:54;;;;;;;24.38;4.20;;;12.30;99.90;;;;;;6207619;23;20099;-82
2023/12/24 17:43:20;;;;;;;27.40;4.45;;;12.20;99.90;;;;;;6207351;23;20017;-81
2023/12/24 17:45:45;;;;;;;23.75;3.75;;;12.60;99.90;;;;;;6207721;23;20020;-82
2023/12/24 17:48:11;;;;;;;13.57;2.92;;;12.20;99.90;;;;;;6207323;22;20081;-81
2023/12/24 17:50:37;;;;;;;21.92;3.45;;;12.20;99.90;;;;;;6207958;23;20449;-82
2023/12/24 17:53:03;;;;;;;19.23;3.05;;;12.10;99.90;;;;;;6207894;23;20020;-83
2023/12/24 17:55:28;;;;;;;18.75;3.25;;;12.10;99.90;;;;;;6181188;23;20541;-81
2023/12/24 17:57:54;;;;;;;22.95;3.92;;;12.30;99.90;;;;;;6207428;23;20101;-81